Time;durP1;ratioP1;P1;durP2;ratioP2;P2;SDS_P1;SDS_P2;PMS_P1;PMS_P2;Temp;Humidity;BMP_temperature;BMP_pressure;BME280_temperature;BME280_humidity;BME280_pressure;Samples;Min_cycle;Max_cycle;Signal;HPM_P1;HPM_P2
2022/03/16 00:01:56;;;;;;;27.30;6.93;;;;;;;;;;5075218;28;20436;-64
2022/03/16 00:04:22;;;;;;;22.10;6.50;;;;;;;;;;5073478;28;20048;-61
2022/03/16 00:06:48;;;;;;;26.63;6.93;;;;;;;;;;5054886;28;20036;-63
2022/03/16 00:09:14;;;;;;;24.02;6.68;;;;;;;;;;5054611;28;20059;-67
2022/03/16 00:11:40;;;;;;;22.55;6.45;;;;;;;;;;5055351;28;20033;-60
2022/03/16 00:14:06;;;;;;;21.92;6.25;;;;;;;;;;5056966;28;20386;-62
2022/03/16 00:16:32;;;;;;;19.17;6.15;;;;;;;;;;5060770;28;20027;-61
2022/03/16 00:18:58;;;;;;;21.70;6.13;;;;;;;;;;5070239;28;20028;-61
2022/03/16 00:21:24;;;;;;;19.98;5.90;;;;;;;;;;5055413;28;20028;-61
2022/03/16 00:23:50;;;;;;;18.10;5.90;;;;;;;;;;5054945;28;20397;-61
2022/03/16 00:26:16;;;;;;;18.67;5.80;;;;;;;;;;5061871;28;20449;-63
2022/03/16 00:28:42;;;;;;;21.13;5.93;;;;;;;;;;5073043;28;20037;-62
2022/03/16 00:31:08;;;;;;;19.70;6.18;;;;;;;;;;5073061;28;20040;-62
2022/03/16 00:33:34;;;;;;;18.73;5.72;;;;;;;;;;5075492;28;20457;-59
2022/03/16 00:36:00;;;;;;;21.65;5.93;;;;;;;;;;5074666;28;20040;-59
2022/03/16 00:38:26;;;;;;;17.60;5.57;;;;;;;;;;5075267;28;20039;-59
2022/03/16 00:40:52;;;;;;;16.65;5.25;;;;;;;;;;5075824;28;20021;-60
2022/03/16 00:43:18;;;;;;;17.15;5.40;;;;;;;;;;5063276;28;20028;-60
2022/03/16 00:45:44;;;;;;;17.90;5.57;;;;;;;;;;5055216;28;20033;-60
2022/03/16 00:48:10;;;;;;;19.00;5.30;;;;;;;;;;5054472;28;20056;-61
2022/03/16 00:50:37;;;;;;;20.25;5.40;;;;;;;;;;5052442;28;20032;-61
2022/03/16 00:53:03;;;;;;;17.88;5.45;;;;;;;;;;5073095;28;20108;-60
2022/03/16 00:55:29;;;;;;;17.83;5.70;;;;;;;;;;5073735;28;20047;-59
2022/03/16 00:57:55;;;;;;;16.02;5.38;;;;;;;;;;5036698;28;20025;-61
2022/03/16 01:00:21;;;;;;;18.13;5.20;;;;;;;;;;5054825;28;20097;-64
2022/03/16 01:02:47;;;;;;;17.50;5.20;;;;;;;;;;5054997;28;20017;-60
2022/03/16 01:05:13;;;;;;;17.73;4.97;;;;;;;;;;5054239;28;20029;-60
2022/03/16 01:07:39;;;;;;;17.25;5.00;;;;;;;;;;5053545;28;20035;-60
2022/03/16 01:10:05;;;;;;;16.92;4.88;;;;;;;;;;5048021;28;20059;-66
2022/03/16 01:12:31;;;;;;;19.25;5.00;;;;;;;;;;5045494;28;20021;-63
2022/03/16 01:14:57;;;;;;;17.45;5.15;;;;;;;;;;5073219;28;20036;-60
2022/03/16 01:17:24;;;;;;;15.93;4.70;;;;;;;;;;5070387;28;20040;-61
2022/03/16 01:19:50;;;;;;;16.30;4.90;;;;;;;;;;5051375;28;20029;-63
2022/03/16 01:22:16;;;;;;;16.52;4.78;;;;;;;;;;5052979;28;20024;-61
2022/03/16 01:24:42;;;;;;;17.33;4.97;;;;;;;;;;5051662;28;20444;-60
2022/03/16 01:27:08;;;;;;;16.00;4.85;;;;;;;;;;5051494;28;20037;-62
2022/03/16 01:29:34;;;;;;;18.38;4.78;;;;;;;;;;5053840;28;20059;-62
2022/03/16 01:32:00;;;;;;;15.90;4.70;;;;;;;;;;5053360;28;20021;-60
2022/03/16 01:34:26;;;;;;;16.38;4.90;;;;;;;;;;5053642;28;20399;-62
2022/03/16 01:36:52;;;;;;;16.58;4.80;;;;;;;;;;5053105;28;20029;-61
2022/03/16 01:39:19;;;;;;;18.55;5.25;;;;;;;;;;5033991;28;20405;-61
2022/03/16 01:41:45;;;;;;;14.82;4.70;;;;;;;;;;5050654;28;20033;-64
2022/03/16 01:44:11;;;;;;;20.13;5.00;;;;;;;;;;5053154;28;20033;-60
2022/03/16 01:46:37;;;;;;;14.25;4.82;;;;;;;;;;5047945;28;20120;-61
2022/03/16 01:49:04;;;;;;;15.85;4.90;;;;;;;;;;5053243;28;20036;-60
2022/03/16 01:51:31;;;;;;;14.93;4.80;;;;;;;;;;5054557;28;20028;-61
2022/03/16 01:53:57;;;;;;;15.18;4.63;;;;;;;;;;5050973;28;20456;-59
2022/03/16 01:56:23;;;;;;;16.00;4.95;;;;;;;;;;5054256;28;20024;-62
2022/03/16 01:58:49;;;;;;;13.93;4.90;;;;;;;;;;5067245;28;20029;-60
2022/03/16 02:01:15;;;;;;;16.88;4.70;;;;;;;;;;5064845;28;20101;-61
2022/03/16 02:03:42;;;;;;;13.57;4.72;;;;;;;;;;5073594;28;20370;-64
2022/03/16 02:06:09;;;;;;;18.05;5.05;;;;;;;;;;5069936;28;20028;-68
2022/03/16 02:08:36;;;;;;;14.88;4.65;;;;;;;;;;5053466;28;20048;-60
2022/03/16 02:11:03;;;;;;;14.45;4.75;;;;;;;;;;5063927;28;20036;-61
2022/03/16 02:13:29;;;;;;;15.10;5.07;;;;;;;;;;5073209;28;20032;-60
2022/03/16 02:15:55;;;;;;;12.00;4.50;;;;;;;;;;5073467;28;20063;-60
2022/03/16 02:18:21;;;;;;;12.45;4.30;;;;;;;;;;5070677;28;20033;-61
2022/03/16 02:20:49;;;;;;;11.02;4.22;;;;;;;;;;5056948;28;20032;-63
2022/03/16 02:23:15;;;;;;;14.02;4.50;;;;;;;;;;5053129;28;20060;-60
2022/03/16 02:25:49;;;;;;;13.30;4.57;;;;;;;;;;5053365;28;20028;-60
2022/03/16 02:28:15;;;;;;;14.35;4.47;;;;;;;;;;5053041;28;20037;-60
2022/03/16 02:30:42;;;;;;;13.32;4.55;;;;;;;;;;5053300;28;20025;-60
2022/03/16 02:33:08;;;;;;;14.23;4.57;;;;;;;;;;5053031;28;20040;-60
2022/03/16 02:35:34;;;;;;;10.52;4.30;;;;;;;;;;5052976;28;20032;-60
2022/03/16 02:38:00;;;;;;;11.23;4.22;;;;;;;;;;5053028;28;20055;-60
2022/03/16 02:40:26;;;;;;;11.70;4.32;;;;;;;;;;5058858;28;20047;-60
2022/03/16 02:42:52;;;;;;;13.13;4.03;;;;;;;;;;5065388;28;20025;-63
2022/03/16 02:45:18;;;;;;;11.30;4.05;;;;;;;;;;5052423;28;20045;-60
2022/03/16 02:47:44;;;;;;;14.18;4.50;;;;;;;;;;5052237;28;20055;-62
2022/03/16 02:50:12;;;;;;;10.13;3.85;;;;;;;;;;5052286;28;20466;-60
2022/03/16 02:52:38;;;;;;;11.82;4.25;;;;;;;;;;5056926;28;20100;-60
2022/03/16 02:55:06;;;;;;;13.05;4.40;;;;;;;;;;5066845;28;20056;-60
2022/03/16 02:57:32;;;;;;;10.18;4.00;;;;;;;;;;5051887;28;20056;-62
2022/03/16 02:59:58;;;;;;;10.93;3.95;;;;;;;;;;5055651;28;20043;-60
2022/03/16 03:02:24;;;;;;;13.20;4.45;;;;;;;;;;5060664;28;20485;-60
2022/03/16 03:04:50;;;;;;;11.32;4.20;;;;;;;;;;5072146;28;20031;-60
2022/03/16 03:07:16;;;;;;;11.23;4.20;;;;;;;;;;5073068;28;20365;-60
2022/03/16 03:09:42;;;;;;;12.10;4.32;;;;;;;;;;5064171;28;20048;-60
2022/03/16 03:12:09;;;;;;;13.05;4.43;;;;;;;;;;5073000;28;20029;-60
2022/03/16 03:14:35;;;;;;;10.90;4.30;;;;;;;;;;5076718;28;20025;-60
2022/03/16 03:17:01;;;;;;;13.55;4.30;;;;;;;;;;5076822;28;20043;-60
2022/03/16 03:19:27;;;;;;;11.40;4.00;;;;;;;;;;5057713;28;20036;-61
2022/03/16 03:21:53;;;;;;;9.57;3.58;;;;;;;;;;5057059;28;20036;-60
2022/03/16 03:24:20;;;;;;;11.20;4.00;;;;;;;;;;5065779;28;20035;-60
2022/03/16 03:26:46;;;;;;;10.43;3.55;;;;;;;;;;5076807;28;20492;-60
2022/03/16 03:29:14;;;;;;;10.00;4.10;;;;;;;;;;5076103;28;20048;-60
2022/03/16 03:31:40;;;;;;;9.90;3.70;;;;;;;;;;5063429;28;20076;-70
2022/03/16 03:34:06;;;;;;;11.45;4.25;;;;;;;;;;5056414;28;20024;-60
2022/03/16 03:36:32;;;;;;;11.02;4.07;;;;;;;;;;5056736;28;20417;-60
2022/03/16 03:38:58;;;;;;;10.38;3.58;;;;;;;;;;5056087;28;20381;-60
2022/03/16 03:41:24;;;;;;;8.82;4.00;;;;;;;;;;5056314;28;20072;-62
2022/03/16 03:43:50;;;;;;;9.13;3.70;;;;;;;;;;5056379;28;20052;-60
2022/03/16 03:46:16;;;;;;;10.05;3.78;;;;;;;;;;5067151;28;20469;-60
2022/03/16 03:48:42;;;;;;;9.90;3.83;;;;;;;;;;5075355;28;20048;-61
2022/03/16 03:51:08;;;;;;;12.48;3.90;;;;;;;;;;5075404;28;20024;-60
2022/03/16 03:53:34;;;;;;;11.55;4.32;;;;;;;;;;5076362;28;20028;-60
2022/03/16 03:56:00;;;;;;;11.95;3.80;;;;;;;;;;5059235;28;20029;-62
2022/03/16 03:58:27;;;;;;;10.95;3.92;;;;;;;;;;5055703;28;20029;-63
2022/03/16 04:00:53;;;;;;;8.32;3.60;;;;;;;;;;5057535;28;20040;-60
2022/03/16 04:03:19;;;;;;;9.80;3.83;;;;;;;;;;5075637;28;20405;-60
2022/03/16 04:05:45;;;;;;;9.18;3.80;;;;;;;;;;5075896;28;20477;-61
2022/03/16 04:08:11;;;;;;;10.65;3.72;;;;;;;;;;5072931;28;20508;-60
2022/03/16 04:10:39;;;;;;;9.05;3.75;;;;;;;;;;5075365;28;20074;-60
2022/03/16 04:13:05;;;;;;;9.32;3.60;;;;;;;;;;5055695;28;20021;-59
2022/03/16 04:15:31;;;;;;;10.30;3.90;;;;;;;;;;5055460;28;20031;-60
2022/03/16 04:17:57;;;;;;;11.63;3.97;;;;;;;;;;5055574;28;20033;-61
2022/03/16 04:20:23;;;;;;;11.93;4.22;;;;;;;;;;5055201;28;20147;-61
2022/03/16 04:22:49;;;;;;;11.93;4.20;;;;;;;;;;5071894;28;20036;-59
2022/03/16 04:25:15;;;;;;;9.82;3.97;;;;;;;;;;5072215;28;20020;-60
2022/03/16 04:27:41;;;;;;;10.25;3.80;;;;;;;;;;5075702;28;20430;-61
2022/03/16 04:30:07;;;;;;;10.55;3.95;;;;;;;;;;5075485;28;20107;-60
2022/03/16 04:32:33;;;;;;;9.80;3.97;;;;;;;;;;5060889;28;20028;-60
2022/03/16 04:34:59;;;;;;;9.15;3.60;;;;;;;;;;5055522;28;20094;-61
2022/03/16 04:37:25;;;;;;;12.57;3.83;;;;;;;;;;5054962;28;20072;-60
2022/03/16 04:39:51;;;;;;;12.48;4.22;;;;;;;;;;5055450;28;20417;-61
2022/03/16 04:42:17;;;;;;;10.30;4.00;;;;;;;;;;5055386;28;20489;-60
2022/03/16 04:44:43;;;;;;;10.40;3.75;;;;;;;;;;5054859;28;20367;-63
2022/03/16 04:47:10;;;;;;;9.63;4.10;;;;;;;;;;5054815;28;20437;-60
2022/03/16 04:49:36;;;;;;;11.55;4.18;;;;;;;;;;5054209;28;20481;-62
2022/03/16 04:52:02;;;;;;;10.77;4.10;;;;;;;;;;5062615;28;20024;-61
2022/03/16 04:54:29;;;;;;;10.00;3.90;;;;;;;;;;5074655;28;20078;-60
2022/03/16 04:56:55;;;;;;;11.18;4.20;;;;;;;;;;5075012;28;20017;-61
2022/03/16 04:59:22;;;;;;;7.55;3.55;;;;;;;;;;5067960;28;20527;-60
2022/03/16 05:01:48;;;;;;;12.65;4.10;;;;;;;;;;5074778;28;20036;-61
2022/03/16 05:04:14;;;;;;;13.05;4.10;;;;;;;;;;5056999;28;20111;-61
2022/03/16 05:06:40;;;;;;;12.63;4.35;;;;;;;;;;5074541;28;20581;-61
2022/03/16 05:09:06;;;;;;;10.75;3.90;;;;;;;;;;5067727;28;20082;-61
2022/03/16 05:11:34;;;;;;;10.43;3.90;;;;;;;;;;5054277;28;20074;-60
2022/03/16 05:14:00;;;;;;;11.50;3.83;;;;;;;;;;5054588;28;20028;-60
2022/03/16 05:16:26;;;;;;;13.57;4.30;;;;;;;;;;5054542;28;20156;-60
2022/03/16 05:18:52;;;;;;;10.32;3.95;;;;;;;;;;5058316;28;20037;-61
2022/03/16 05:21:18;;;;;;;12.15;4.10;;;;;;;;;;5074437;28;20123;-60
2022/03/16 05:23:44;;;;;;;10.73;4.00;;;;;;;;;;5056489;28;20108;-61
2022/03/16 05:26:10;;;;;;;11.88;3.90;;;;;;;;;;5063883;28;20418;-61
2022/03/16 05:28:36;;;;;;;12.35;4.32;;;;;;;;;;5055342;28;20037;-61
2022/03/16 05:31:02;;;;;;;11.32;4.38;;;;;;;;;;5074527;28;20024;-60
2022/03/16 05:33:28;;;;;;;11.55;3.95;;;;;;;;;;5074194;28;20032;-61
2022/03/16 05:35:55;;;;;;;10.60;4.13;;;;;;;;;;5068480;28;20029;-63
2022/03/16 05:38:21;;;;;;;10.10;3.97;;;;;;;;;;5054376;28;20032;-63
2022/03/16 05:40:47;;;;;;;10.18;4.10;;;;;;;;;;5073184;28;20034;-62
2022/03/16 05:43:13;;;;;;;10.48;4.20;;;;;;;;;;5066231;28;20415;-61
2022/03/16 05:45:39;;;;;;;9.43;4.05;;;;;;;;;;5036068;28;20029;-65
2022/03/16 05:48:06;;;;;;;10.40;4.10;;;;;;;;;;5053429;28;20486;-61
2022/03/16 05:50:32;;;;;;;10.88;4.20;;;;;;;;;;5069547;28;20141;-62
2022/03/16 05:52:59;;;;;;;12.40;4.35;;;;;;;;;;5073719;28;20040;-61
2022/03/16 05:55:25;;;;;;;12.73;4.22;;;;;;;;;;5073852;28;20058;-64
2022/03/16 05:57:51;;;;;;;9.88;4.00;;;;;;;;;;5057730;28;20033;-61
2022/03/16 06:00:18;;;;;;;9.35;4.03;;;;;;;;;;5054000;28;20036;-63
2022/03/16 06:02:45;;;;;;;9.80;4.10;;;;;;;;;;5057632;28;20094;-61
2022/03/16 06:05:11;;;;;;;13.43;4.47;;;;;;;;;;5064457;28;20040;-60
2022/03/16 06:07:38;;;;;;;9.48;3.90;;;;;;;;;;5073329;28;20200;-66
2022/03/16 06:10:05;;;;;;;10.07;4.10;;;;;;;;;;5073460;28;20102;-60
2022/03/16 06:12:31;;;;;;;10.15;3.90;;;;;;;;;;5073070;28;20385;-60
2022/03/16 06:14:57;;;;;;;10.57;4.00;;;;;;;;;;5064309;28;20025;-65
2022/03/16 06:17:23;;;;;;;11.07;4.22;;;;;;;;;;5064408;28;20498;-60
2022/03/16 06:19:49;;;;;;;11.40;4.07;;;;;;;;;;5052997;28;20029;-61
2022/03/16 06:22:15;;;;;;;11.20;4.15;;;;;;;;;;5053206;28;20028;-59
2022/03/16 06:24:41;;;;;;;11.88;4.45;;;;;;;;;;5054268;28;20112;-60
2022/03/16 06:27:07;;;;;;;11.65;4.28;;;;;;;;;;5053070;28;20033;-60
2022/03/16 06:29:33;;;;;;;12.40;3.95;;;;;;;;;;5053330;28;20033;-61
2022/03/16 06:32:00;;;;;;;12.07;4.30;;;;;;;;;;5053329;28;20029;-61
2022/03/16 06:34:26;;;;;;;11.60;4.22;;;;;;;;;;5055832;28;20069;-66
2022/03/16 06:36:52;;;;;;;10.82;4.20;;;;;;;;;;5067049;28;20409;-60
2022/03/16 06:39:18;;;;;;;10.35;3.97;;;;;;;;;;5051946;28;20041;-60
2022/03/16 06:41:44;;;;;;;11.63;4.00;;;;;;;;;;5052496;28;20417;-65
2022/03/16 06:44:11;;;;;;;12.35;4.22;;;;;;;;;;5052691;28;20033;-60
2022/03/16 06:46:37;;;;;;;11.05;4.10;;;;;;;;;;5048463;28;20056;-60
2022/03/16 06:49:04;;;;;;;10.45;3.90;;;;;;;;;;5052471;28;20107;-62
2022/03/16 06:51:30;;;;;;;9.65;3.63;;;;;;;;;;5052512;28;20025;-61
2022/03/16 06:53:56;;;;;;;11.68;4.00;;;;;;;;;;5034963;28;20043;-62
2022/03/16 06:56:22;;;;;;;12.05;4.07;;;;;;;;;;5051570;28;20083;-61
2022/03/16 06:58:49;;;;;;;9.40;3.70;;;;;;;;;;5069010;28;20040;-61
2022/03/16 07:01:15;;;;;;;9.43;3.83;;;;;;;;;;5073044;28;20017;-60
2022/03/16 07:03:41;;;;;;;10.35;3.80;;;;;;;;;;5071689;28;20029;-60
2022/03/16 07:06:08;;;;;;;11.50;4.03;;;;;;;;;;5072566;28;20068;-61
2022/03/16 07:08:35;;;;;;;9.60;3.65;;;;;;;;;;5072725;28;20048;-60
2022/03/16 07:11:01;;;;;;;9.63;3.90;;;;;;;;;;5072264;28;20088;-59
2022/03/16 07:13:27;;;;;;;9.40;3.60;;;;;;;;;;5070788;28;20432;-59
2022/03/16 07:15:53;;;;;;;11.02;3.90;;;;;;;;;;5059330;28;20601;-63
2022/03/16 07:18:20;;;;;;;9.30;3.80;;;;;;;;;;5050586;28;20036;-61
2022/03/16 07:20:47;;;;;;;9.73;3.72;;;;;;;;;;5054019;28;20025;-59
2022/03/16 07:23:14;;;;;;;9.93;3.80;;;;;;;;;;5052538;28;20064;-59
2022/03/16 07:25:42;;;;;;;12.38;4.28;;;;;;;;;;5052054;28;20021;-59
2022/03/16 07:28:08;;;;;;;16.60;4.40;;;;;;;;;;5052642;28;20071;-68
2022/03/16 07:30:34;;;;;;;80.40;43.35;;;;;;;;;;5052448;28;20100;-64
2022/03/16 07:33:01;;;;;;;142.23;79.28;;;;;;;;;;5058760;28;20028;-67
2022/03/16 07:35:27;;;;;;;82.93;50.08;;;;;;;;;;5065120;28;20043;-67
2022/03/16 07:37:57;;;;;;;53.80;30.38;;;;;;;;;;5052749;28;20025;-66
2022/03/16 07:40:24;;;;;;;52.75;28.63;;;;;;;;;;5054828;28;20025;-68
2022/03/16 07:42:50;;;;;;;46.17;25.67;;;;;;;;;;5065599;28;20524;-58
2022/03/16 07:45:18;;;;;;;45.17;24.60;;;;;;;;;;5051396;28;20025;-59
2022/03/16 07:47:45;;;;;;;42.25;21.55;;;;;;;;;;5052010;28;20124;-65
2022/03/16 07:50:11;;;;;;;40.83;20.15;;;;;;;;;;5050611;28;20086;-62
2022/03/16 07:52:38;;;;;;;34.97;17.77;;;;;;;;;;5049992;28;20486;-67
2022/03/16 07:55:04;;;;;;;34.83;17.20;;;;;;;;;;5050841;28;20103;-58
2022/03/16 07:57:31;;;;;;;35.53;14.40;;;;;;;;;;5052317;28;20018;-59
2022/03/16 07:59:57;;;;;;;32.30;15.23;;;;;;;;;;5055072;28;20025;-62
2022/03/16 08:02:23;;;;;;;29.52;13.70;;;;;;;;;;5063062;28;20032;-62
2022/03/16 08:04:49;;;;;;;32.85;14.07;;;;;;;;;;5056732;28;20032;-68
2022/03/16 08:07:15;;;;;;;26.20;12.25;;;;;;;;;;5058922;28;20115;-59
2022/03/16 08:09:41;;;;;;;28.52;11.60;;;;;;;;;;5055621;28;20044;-59
2022/03/16 08:12:08;;;;;;;26.40;10.55;;;;;;;;;;5051684;28;20028;-65
2022/03/16 08:14:33;;;;;;;25.25;10.57;;;;;;;;;;5049053;28;20036;-67
2022/03/16 08:17:00;;;;;;;28.88;10.70;;;;;;;;;;5054989;28;20055;-67
2022/03/16 08:19:26;;;;;;;24.45;9.98;;;;;;;;;;5049557;28;20490;-62
2022/03/16 08:21:52;;;;;;;24.48;9.50;;;;;;;;;;5053959;28;20038;-59
2022/03/16 08:24:18;;;;;;;23.55;8.80;;;;;;;;;;5062003;28;20037;-65
2022/03/16 08:26:44;;;;;;;22.73;8.85;;;;;;;;;;5075169;28;20100;-60
2022/03/16 08:29:10;;;;;;;22.30;8.27;;;;;;;;;;5054664;28;20389;-60
2022/03/16 08:31:37;;;;;;;22.95;8.57;;;;;;;;;;5056000;28;21672;-61
2022/03/16 08:34:03;;;;;;;21.55;7.50;;;;;;;;;;5048676;28;20090;-60
2022/03/16 08:36:29;;;;;;;20.23;7.20;;;;;;;;;;5057402;28;20044;-61
2022/03/16 08:38:55;;;;;;;18.83;6.78;;;;;;;;;;5044806;28;20033;-60
2022/03/16 08:41:21;;;;;;;23.00;7.63;;;;;;;;;;5035390;28;20025;-60
2022/03/16 08:43:48;;;;;;;22.85;6.60;;;;;;;;;;5044987;28;20029;-63
2022/03/16 08:46:14;;;;;;;19.70;7.00;;;;;;;;;;5047749;28;20047;-63
2022/03/16 08:48:40;;;;;;;19.55;6.22;;;;;;;;;;5050954;28;20037;-61
2022/03/16 08:51:08;;;;;;;19.55;6.25;;;;;;;;;;5050930;28;20047;-70
2022/03/16 08:53:34;;;;;;;19.15;5.90;;;;;;;;;;5053759;28;20508;-67
2022/03/16 08:56:01;;;;;;;21.10;6.32;;;;;;;;;;5054040;28;20066;-70
2022/03/16 08:58:27;;;;;;;24.00;6.28;;;;;;;;;;5052293;28;20021;-64
2022/03/16 09:00:54;;;;;;;20.08;6.03;;;;;;;;;;5035168;28;20028;-66
2022/03/16 09:03:20;;;;;;;34.33;6.15;;;;;;;;;;5053244;28;20035;-69
2022/03/16 09:05:46;;;;;;;23.35;5.55;;;;;;;;;;5055664;28;20021;-59
2022/03/16 09:08:12;;;;;;;20.50;6.18;;;;;;;;;;5057190;28;20036;-62
2022/03/16 09:10:39;;;;;;;25.73;6.57;;;;;;;;;;5055294;28;20043;-60
2022/03/16 09:13:05;;;;;;;24.20;6.85;;;;;;;;;;5053134;28;20017;-61
2022/03/16 09:15:31;;;;;;;19.45;6.03;;;;;;;;;;5035333;28;20405;-59
2022/03/16 09:17:57;;;;;;;23.63;5.78;;;;;;;;;;5053282;28;20136;-62
2022/03/16 09:20:24;;;;;;;21.30;6.25;;;;;;;;;;5045251;28;20059;-62
2022/03/16 09:22:50;;;;;;;20.58;5.63;;;;;;;;;;5054037;28;20029;-60
2022/03/16 09:25:16;;;;;;;17.85;5.50;;;;;;;;;;5054171;28;20386;-61
2022/03/16 09:27:42;;;;;;;21.40;6.10;;;;;;;;;;5068968;28;20046;-62
2022/03/16 09:30:08;;;;;;;17.08;5.50;;;;;;;;;;5054796;28;20033;-59
2022/03/16 09:32:35;;;;;;;19.40;5.38;;;;;;;;;;5051272;28;20025;-63
2022/03/16 09:35:01;;;;;;;19.00;5.32;;;;;;;;;;5052457;28;20482;-60
2022/03/16 09:37:27;;;;;;;18.88;5.45;;;;;;;;;;5054257;28;20033;-61
2022/03/16 09:39:53;;;;;;;14.60;4.85;;;;;;;;;;5054128;28;20025;-62
2022/03/16 09:42:20;;;;;;;15.95;5.28;;;;;;;;;;5054283;28;20470;-63
2022/03/16 09:44:46;;;;;;;17.88;5.35;;;;;;;;;;5059101;28;20393;-61
2022/03/16 09:47:12;;;;;;;17.52;5.18;;;;;;;;;;5060357;28;20025;-61
2022/03/16 09:49:38;;;;;;;14.85;5.00;;;;;;;;;;5073600;28;20036;-60
2022/03/16 09:52:07;;;;;;;17.17;5.07;;;;;;;;;;5058015;28;20021;-60
2022/03/16 09:54:33;;;;;;;15.32;4.65;;;;;;;;;;5034761;28;20025;-63
2022/03/16 09:57:00;;;;;;;16.95;5.28;;;;;;;;;;5052361;28;20049;-61
2022/03/16 09:59:26;;;;;;;16.00;4.88;;;;;;;;;;5046456;28;20022;-61
2022/03/16 10:02:21;;;;;;;16.95;5.07;;;;;;;;;;5052255;28;20021;-62
2022/03/16 10:04:48;;;;;;;15.40;4.63;;;;;;;;;;5051761;28;20029;-63
2022/03/16 10:07:14;;;;;;;17.45;5.03;;;;;;;;;;5035373;28;20397;-61
2022/03/16 10:15:18;;;;;;;18.02;4.70;;;;;;;;;;5018534;28;20033;-59
2022/03/16 10:17:47;;;;;;;14.93;4.57;;;;;;;;;;5047449;28;20035;-60
2022/03/16 10:20:21;;;;;;;16.60;4.88;;;;;;;;;;5051309;28;20039;-61
2022/03/16 10:22:54;;;;;;;14.98;4.60;;;;;;;;;;5030808;28;20020;-60
2022/03/16 10:25:21;;;;;;;15.77;4.50;;;;;;;;;;5049923;28;20028;-62
2022/03/16 10:27:47;;;;;;;14.57;4.30;;;;;;;;;;5050099;28;20021;-59
2022/03/16 10:30:13;;;;;;;15.88;4.57;;;;;;;;;;5050118;28;20031;-59
2022/03/16 10:32:40;;;;;;;15.10;4.70;;;;;;;;;;5045335;28;20025;-60
2022/03/16 10:35:06;;;;;;;17.42;4.80;;;;;;;;;;5051083;28;20044;-60
2022/03/16 10:37:35;;;;;;;17.02;4.72;;;;;;;;;;5050579;28;20134;-60
2022/03/16 10:40:03;;;;;;;14.45;4.85;;;;;;;;;;5052004;28;20466;-60
2022/03/16 10:48:16;;;;;;;14.70;4.63;;;;;;;;;;5036904;28;20039;-60
2022/03/16 10:50:43;;;;;;;16.38;4.85;;;;;;;;;;5043607;28;20017;-61
2022/03/16 10:53:14;;;;;;;14.77;5.07;;;;;;;;;;5047993;28;20021;-60
2022/03/16 10:55:42;;;;;;;16.27;4.85;;;;;;;;;;5059911;28;20074;-60
2022/03/16 10:58:09;;;;;;;14.98;4.70;;;;;;;;;;5064087;28;20497;-59
2022/03/16 11:00:35;;;;;;;16.60;4.80;;;;;;;;;;5051569;28;20033;-63
2022/03/16 11:03:06;;;;;;;15.02;4.80;;;;;;;;;;5051662;28;20083;-60
2022/03/16 11:05:36;;;;;;;17.33;5.13;;;;;;;;;;5051596;28;20025;-61
2022/03/16 11:08:06;;;;;;;15.68;4.90;;;;;;;;;;5049066;28;20071;-60
2022/03/16 11:10:32;;;;;;;15.60;4.60;;;;;;;;;;5039032;28;20037;-61
2022/03/16 11:15:44;;;;;;;16.27;4.90;;;;;;;;;;5051680;28;20111;-60
2022/03/16 11:18:10;;;;;;;14.27;4.45;;;;;;;;;;5040144;28;20064;-60
2022/03/16 11:20:37;;;;;;;16.20;4.70;;;;;;;;;;5043441;28;20432;-63
2022/03/16 11:26:11;;;;;;;16.48;4.53;;;;;;;;;;5048328;28;20135;-59
2022/03/16 11:29:05;;;;;;;15.93;4.68;;;;;;;;;;5039664;28;20040;-63
2022/03/16 11:31:32;;;;;;;15.15;4.65;;;;;;;;;;5046815;28;20107;-60
2022/03/16 11:33:59;;;;;;;20.52;6.15;;;;;;;;;;5052190;28;20017;-60
2022/03/16 11:36:38;;;;;;;23.55;8.60;;;;;;;;;;5048489;28;20029;-61
2022/03/16 11:39:14;;;;;;;21.10;7.22;;;;;;;;;;5029006;28;20389;-60
2022/03/16 11:41:47;;;;;;;20.70;7.13;;;;;;;;;;5058393;28;20029;-59
2022/03/16 11:44:25;;;;;;;23.92;7.80;;;;;;;;;;5066625;28;20021;-59
2022/03/16 11:46:55;;;;;;;24.73;7.93;;;;;;;;;;5055229;28;20029;-60
2022/03/16 11:49:29;;;;;;;23.08;8.18;;;;;;;;;;5037397;28;20425;-61
2022/03/16 11:52:03;;;;;;;22.65;8.00;;;;;;;;;;5038738;28;20029;-60
2022/03/16 11:54:49;;;;;;;25.05;8.77;;;;;;;;;;5067301;28;20029;-60
2022/03/16 11:57:30;;;;;;;23.45;7.97;;;;;;;;;;5050776;28;20021;-61
2022/03/16 11:59:59;;;;;;;23.73;8.07;;;;;;;;;;5053835;28;20462;-60
2022/03/16 12:02:27;;;;;;;22.58;7.75;;;;;;;;;;5041320;28;20048;-59
2022/03/16 12:05:01;;;;;;;24.73;8.20;;;;;;;;;;5055052;28;20476;-61
2022/03/16 12:07:30;;;;;;;22.63;7.75;;;;;;;;;;5046162;28;20560;-60
2022/03/16 12:10:00;;;;;;;22.55;7.25;;;;;;;;;;5056542;28;20048;-60
2022/03/16 12:15:11;;;;;;;23.10;7.00;;;;;;;;;;5047353;28;20102;-60
2022/03/16 12:17:43;;;;;;;26.45;7.30;;;;;;;;;;5056169;28;20449;-63
2022/03/16 12:20:12;;;;;;;27.88;8.15;;;;;;;;;;5047242;28;20029;-65
2022/03/16 12:22:42;;;;;;;26.83;8.00;;;;;;;;;;5042299;28;20786;-63
2022/03/16 12:25:26;;;;;;;27.67;8.27;;;;;;;;;;5051338;28;20041;-66
2022/03/16 12:30:51;;;;;;;25.35;7.20;;;;;;;;;;5050484;28;20040;-61
2022/03/16 12:33:22;;;;;;;26.83;7.35;;;;;;;;;;5053898;28;20355;-61
2022/03/16 12:35:51;;;;;;;26.50;7.50;;;;;;;;;;5054208;28;20091;-58
2022/03/16 12:38:18;;;;;;;23.60;6.72;;;;;;;;;;5048899;28;20028;-61
2022/03/16 12:43:30;;;;;;;26.48;6.45;;;;;;;;;;5038934;28;20521;-62
2022/03/16 12:46:11;;;;;;;20.38;6.65;;;;;;;;;;5057437;28;20031;-62
2022/03/16 12:48:37;;;;;;;22.42;6.68;;;;;;;;;;5055500;28;20108;-60
2022/03/16 12:51:03;;;;;;;19.45;6.13;;;;;;;;;;5053432;28;20029;-63
2022/03/16 12:53:45;;;;;;;18.75;6.05;;;;;;;;;;5054065;28;20043;-65
2022/03/16 12:56:18;;;;;;;20.08;6.05;;;;;;;;;;5059939;28;20044;-65
2022/03/16 12:58:53;;;;;;;21.05;5.85;;;;;;;;;;5047881;28;20592;-65
2022/03/16 13:01:21;;;;;;;23.13;5.93;;;;;;;;;;5053838;28;20029;-64
2022/03/16 13:03:49;;;;;;;21.05;5.88;;;;;;;;;;5053424;28;20033;-64
2022/03/16 13:06:16;;;;;;;22.75;5.80;;;;;;;;;;5037945;28;20060;-65
2022/03/16 13:08:42;;;;;;;20.23;5.80;;;;;;;;;;5061486;28;20054;-60
2022/03/16 13:11:16;;;;;;;26.25;6.07;;;;;;;;;;5054598;28;20033;-66
2022/03/16 13:13:48;;;;;;;19.77;6.20;;;;;;;;;;5068587;28;20116;-63
2022/03/16 13:16:34;;;;;;;25.13;6.40;;;;;;;;;;5053527;28;20128;-64
2022/03/16 13:19:02;;;;;;;21.05;6.10;;;;;;;;;;5054170;28;20107;-64
2022/03/16 13:21:28;;;;;;;21.98;5.72;;;;;;;;;;5052407;28;20039;-65
2022/03/16 13:24:04;;;;;;;19.02;5.57;;;;;;;;;;5036616;28;20036;-64
2022/03/16 13:26:30;;;;;;;21.33;5.55;;;;;;;;;;5053566;28;20021;-63
2022/03/16 13:28:58;;;;;;;21.13;5.38;;;;;;;;;;5051527;28;20127;-67
2022/03/16 13:31:33;;;;;;;17.50;5.28;;;;;;;;;;5057254;28;20032;-65
2022/03/16 13:34:03;;;;;;;15.02;4.93;;;;;;;;;;5018803;28;20026;-64
2022/03/16 13:36:34;;;;;;;20.40;5.05;;;;;;;;;;5064718;28;20033;-65
2022/03/16 13:39:20;;;;;;;20.60;5.40;;;;;;;;;;5053245;28;20028;-65
2022/03/16 13:42:07;;;;;;;17.63;4.90;;;;;;;;;;5019652;28;20128;-65
2022/03/16 13:44:37;;;;;;;16.75;4.63;;;;;;;;;;5053366;28;20021;-64
2022/03/16 13:47:04;;;;;;;16.73;4.90;;;;;;;;;;5053647;28;20474;-63
2022/03/16 13:49:34;;;;;;;19.75;5.30;;;;;;;;;;5053194;28;20064;-64
2022/03/16 13:52:14;;;;;;;17.85;4.88;;;;;;;;;;5036307;28;20029;-64
2022/03/16 13:54:43;;;;;;;17.98;4.82;;;;;;;;;;5053344;28;20102;-65
2022/03/16 13:57:17;;;;;;;17.83;4.65;;;;;;;;;;5052724;28;20029;-64
2022/03/16 14:00:00;;;;;;;16.83;5.18;;;;;;;;;;5052752;28;20028;-64
2022/03/16 14:02:31;;;;;;;20.30;4.80;;;;;;;;;;5050743;28;20060;-64
2022/03/16 14:05:05;;;;;;;16.63;5.00;;;;;;;;;;5035218;28;20048;-64
2022/03/16 14:07:39;;;;;;;17.55;4.63;;;;;;;;;;5051756;28;20155;-65
2022/03/16 14:10:06;;;;;;;16.55;4.70;;;;;;;;;;5050251;28;20033;-64
2022/03/16 14:12:33;;;;;;;15.05;4.60;;;;;;;;;;5049022;28;20025;-63
2022/03/16 14:15:01;;;;;;;15.13;4.70;;;;;;;;;;5052545;28;20048;-63
2022/03/16 14:17:42;;;;;;;16.40;4.88;;;;;;;;;;5038078;28;20029;-64
2022/03/16 14:20:09;;;;;;;14.38;4.85;;;;;;;;;;5036676;28;20081;-64
2022/03/16 14:22:35;;;;;;;15.90;4.47;;;;;;;;;;5051684;28;20440;-64
2022/03/16 14:25:11;;;;;;;16.30;4.68;;;;;;;;;;5052361;28;20032;-63
2022/03/16 14:27:37;;;;;;;15.48;4.75;;;;;;;;;;5048527;28;20095;-64
2022/03/16 14:30:03;;;;;;;14.35;4.60;;;;;;;;;;5051955;28;20025;-64
2022/03/16 14:32:29;;;;;;;16.00;4.75;;;;;;;;;;5051680;28;20025;-64
2022/03/16 14:34:55;;;;;;;14.40;4.85;;;;;;;;;;5051615;28;20382;-63
2022/03/16 14:37:22;;;;;;;15.35;4.93;;;;;;;;;;5044063;28;20531;-65
2022/03/16 14:39:49;;;;;;;15.18;4.80;;;;;;;;;;5047704;28;20438;-66
2022/03/16 14:42:17;;;;;;;16.15;4.80;;;;;;;;;;5046858;28;20581;-67
2022/03/16 14:44:43;;;;;;;14.95;4.40;;;;;;;;;;5047759;28;20785;-67
2022/03/16 14:47:09;;;;;;;13.50;4.70;;;;;;;;;;5047947;28;20120;-64
2022/03/16 14:49:35;;;;;;;13.13;4.30;;;;;;;;;;5044846;28;20079;-63
2022/03/16 14:52:03;;;;;;;14.73;4.40;;;;;;;;;;5059322;28;20033;-66
2022/03/16 14:54:29;;;;;;;15.85;4.72;;;;;;;;;;5042824;28;20104;-65
2022/03/16 14:56:55;;;;;;;15.90;4.40;;;;;;;;;;5028504;28;20542;-65
2022/03/16 14:59:21;;;;;;;13.55;4.43;;;;;;;;;;5047673;28;20100;-62